Time;durP1;ratioP1;P1;durP2;ratioP2;P2;SDS_P1;SDS_P2;PMS_P1;PMS_P2;Temp;Humidity;BMP_temperature;BMP_pressure;BME280_temperature;BME280_humidity;BME280_pressure;Samples;Min_cycle;Max_cycle;Signal;HPM_P1;HPM_P2
2021/12/18 00:00:34;;;;;;;;;;;1.30;87.10;;;;;;5084628;27;88705;-43
2021/12/18 00:02:59;;;;;;;;;;;1.30;87.00;;;;;;5087819;27;87139;-45
2021/12/18 00:05:25;;;;;;;;;;;1.30;87.20;;;;;;5084267;27;88492;-43
2021/12/18 00:07:50;;;;;;;;;;;1.30;87.30;;;;;;5085059;27;86400;-45
2021/12/18 00:10:20;;;;;;;;;;;1.30;87.20;;;;;;5084628;27;88405;-47
2021/12/18 00:12:49;;;;;;;;;;;1.30;87.10;;;;;;5084397;27;88501;-44
2021/12/18 00:15:21;;;;;;;;;;;1.30;87.10;;;;;;5083983;27;88057;-45
2021/12/18 00:17:47;;;;;;;;;;;1.30;86.90;;;;;;5084661;27;90248;-43
2021/12/18 00:20:16;;;;;;;;;;;1.40;87.00;;;;;;5084119;27;90020;-44
2021/12/18 00:22:42;;;;;;;;;;;1.30;87.00;;;;;;5084293;27;87052;-44
2021/12/18 00:25:08;;;;;;;;;;;1.30;87.00;;;;;;5087129;27;89072;-42
2021/12/18 00:27:34;;;;;;;;;;;1.30;86.90;;;;;;5084448;27;87034;-43
2021/12/18 00:30:00;;;;;;;;;;;1.30;86.90;;;;;;5084345;27;88954;-45
2021/12/18 00:32:25;;;;;;;;;;;1.30;87.00;;;;;;5084517;27;88417;-43
2021/12/18 00:34:51;;;;;;;;;;;1.30;87.00;;;;;;5084345;27;87163;-44
2021/12/18 00:37:16;;;;;;;;;;;1.30;86.90;;;;;;5084078;27;89124;-43
2021/12/18 00:39:54;;;;;;;;;;;1.20;86.90;;;;;;5083265;27;90147;-43
2021/12/18 00:42:35;;;;;;;;;;;1.20;87.00;;;;;;5084382;27;86876;-43
2021/12/18 00:45:02;;;;;;;;;;;1.20;86.90;;;;;;5084206;27;88687;-42
2021/12/18 00:47:28;;;;;;;;;;;1.20;87.10;;;;;;5086727;27;89198;-45
2021/12/18 00:49:54;;;;;;;;;;;1.20;86.90;;;;;;5084056;27;89037;-44
2021/12/18 00:52:19;;;;;;;;;;;1.20;87.00;;;;;;5084037;27;88865;-43
2021/12/18 00:54:45;;;;;;;;;;;1.20;87.00;;;;;;5083995;27;87139;-42
2021/12/18 00:57:10;;;;;;;;;;;1.20;87.00;;;;;;5084847;27;87534;-43
2021/12/18 00:59:36;;;;;;;;;;;1.20;87.10;;;;;;5086721;27;89128;-42
2021/12/18 01:02:02;;;;;;;;;;;1.20;87.20;;;;;;5087639;27;87075;-43
2021/12/18 01:04:28;;;;;;;;;;;1.20;87.10;;;;;;5086993;27;89110;-44
2021/12/18 01:06:53;;;;;;;;;;;1.10;87.00;;;;;;5090118;27;89408;-42
2021/12/18 01:09:25;;;;;;;;;;;1.10;87.10;;;;;;5069119;27;90388;-43
2021/12/18 01:11:51;;;;;;;;;;;1.10;87.10;;;;;;5087158;27;89082;-43
2021/12/18 01:25:03;;;;;;;;;;;1.20;87.10;;;;;;5087664;27;86928;-43
2021/12/18 01:27:28;;;;;;;;;;;1.10;87.10;;;;;;5086816;27;89672;-43
2021/12/18 01:29:54;;;;;;;;;;;1.10;87.10;;;;;;5089420;27;88954;-43
2021/12/18 01:32:19;;;;;;;;;;;1.10;87.10;;;;;;5086908;27;89732;-43
2021/12/18 01:34:45;;;;;;;;;;;1.10;87.10;;;;;;5087154;27;87117;-43
2021/12/18 01:37:11;;;;;;;;;;;1.10;87.40;;;;;;5087300;27;89054;-43
2021/12/18 01:39:36;;;;;;;;;;;1.10;87.20;;;;;;5086756;27;89489;-43
2021/12/18 01:53:20;;;;;;;;;;;1.10;87.20;;;;;;5070864;27;86955;-44
2021/12/18 01:55:49;;;;;;;;;;;1.10;87.20;;;;;;5086206;27;88119;-43
2021/12/18 01:58:19;;;;;;;;;;;1.10;87.10;;;;;;5086199;27;89696;-44
2021/12/18 02:00:45;;;;;;;;;;;1.10;87.20;;;;;;5086508;27;89465;-43
2021/12/18 02:03:10;;;;;;;;;;;1.10;87.40;;;;;;5086379;27;86848;-43
2021/12/18 02:05:37;;;;;;;;;;;1.10;87.30;;;;;;5087039;27;88731;-43
2021/12/18 02:08:03;;;;;;;;;;;1.20;87.10;;;;;;5086029;27;89403;-43
2021/12/18 02:10:31;;;;;;;;;;;1.10;87.00;;;;;;5086684;27;87173;-42
2021/12/18 02:13:24;;;;;;;;;;;1.10;87.10;;;;;;5087066;27;88835;-45
2021/12/18 02:21:24;;;;;;;;;;;1.00;87.30;;;;;;5084700;27;88230;-44
2021/12/18 02:23:50;;;;;;;;;;;1.10;87.30;;;;;;5086244;27;87038;-43
2021/12/18 02:26:15;;;;;;;;;;;1.10;87.30;;;;;;5086265;27;88770;-43
2021/12/18 02:28:45;;;;;;;;;;;1.10;87.40;;;;;;5085987;27;88441;-43
2021/12/18 02:31:11;;;;;;;;;;;1.00;87.40;;;;;;5086351;27;87134;-43
2021/12/18 02:33:37;;;;;;;;;;;1.10;87.50;;;;;;5086169;27;88787;-43
2021/12/18 02:36:06;;;;;;;;;;;1.00;87.50;;;;;;5085721;27;89273;-43
2021/12/18 02:41:23;;;;;;;;;;;1.10;87.20;;;;;;5083932;27;87943;-42
2021/12/18 02:43:49;;;;;;;;;;;1.00;87.40;;;;;;5086281;27;86974;-43
2021/12/18 02:46:19;;;;;;;;;;;1.00;87.30;;;;;;5085520;27;88705;-44
2021/12/18 02:48:45;;;;;;;;;;;1.00;87.50;;;;;;5085567;27;89270;-43
2021/12/18 02:51:12;;;;;;;;;;;1.00;87.40;;;;;;5086028;27;86953;-43
2021/12/18 02:53:40;;;;;;;;;;;1.00;87.50;;;;;;5085977;27;88877;-42
2021/12/18 02:56:06;;;;;;;;;;;1.00;87.40;;;;;;5085759;27;89592;-42
2021/12/18 02:58:43;;;;;;;;;;;1.00;87.40;;;;;;5085618;27;87133;-43
2021/12/18 03:01:11;;;;;;;;;;;0.90;87.60;;;;;;5088439;27;89200;-45
2021/12/18 03:03:40;;;;;;;;;;;1.00;87.50;;;;;;5086129;27;86419;-42
2021/12/18 03:27:19;;;;;;;;;;;1.00;87.30;;;;;;5085504;27;87160;-43
2021/12/18 03:29:45;;;;;;;;;;;1.00;87.40;;;;;;5085554;27;87020;-45
2021/12/18 03:32:11;;;;;;;;;;;1.00;87.30;;;;;;5085329;27;87080;-45
2021/12/18 03:34:36;;;;;;;;;;;0.90;87.30;;;;;;5085214;27;89005;-43
2021/12/18 03:37:02;;;;;;;;;;;1.00;87.30;;;;;;5084165;27;90701;-43
2021/12/18 03:39:28;;;;;;;;;;;0.90;87.30;;;;;;5085010;27;87089;-43
2021/12/18 03:41:54;;;;;;;;;;;0.90;87.20;;;;;;5085243;27;88670;-43
2021/12/18 03:44:20;;;;;;;;;;;0.90;87.20;;;;;;5087619;27;89725;-46
2021/12/18 03:46:46;;;;;;;;;;;0.90;87.30;;;;;;5085215;27;87927;-43
2021/12/18 03:49:12;;;;;;;;;;;0.90;87.30;;;;;;5084724;27;89765;-43
2021/12/18 03:51:37;;;;;;;;;;;0.90;87.30;;;;;;5084994;27;87040;-43
2021/12/18 03:54:03;;;;;;;;;;;0.90;87.20;;;;;;5085545;27;88636;-43
2021/12/18 03:56:29;;;;;;;;;;;0.90;87.30;;;;;;5084811;27;89314;-43
2021/12/18 03:58:54;;;;;;;;;;;0.90;87.30;;;;;;5084185;27;86991;-43
2021/12/18 04:01:20;;;;;;;;;;;0.90;87.20;;;;;;5084155;27;88740;-44
2021/12/18 04:03:46;;;;;;;;;;;0.90;87.30;;;;;;5084416;27;88635;-44
2021/12/18 04:06:11;;;;;;;;;;;0.90;87.40;;;;;;5087447;27;87184;-43
2021/12/18 04:08:37;;;;;;;;;;;0.90;87.20;;;;;;5084560;27;89666;-43
2021/12/18 04:11:03;;;;;;;;;;;0.90;87.40;;;;;;5084620;27;86899;-42
2021/12/18 04:13:30;;;;;;;;;;;0.90;87.50;;;;;;5084882;27;88778;-45
2021/12/18 04:15:55;;;;;;;;;;;0.90;87.40;;;;;;5084210;27;89239;-42
2021/12/18 04:18:21;;;;;;;;;;;0.90;87.40;;;;;;5085183;27;86435;-43
2021/12/18 04:20:46;;;;;;;;;;;0.90;87.40;;;;;;5084605;27;88236;-43
2021/12/18 04:23:12;;;;;;;;;;;0.90;87.30;;;;;;5083999;27;89249;-43
2021/12/18 04:25:37;;;;;;;;;;;0.90;87.40;;;;;;5083677;27;88021;-43
2021/12/18 04:28:03;;;;;;;;;;;0.90;87.50;;;;;;5087049;27;89568;-43
2021/12/18 04:30:28;;;;;;;;;;;0.90;87.60;;;;;;5084257;27;87118;-45
2021/12/18 04:32:54;;;;;;;;;;;0.90;87.60;;;;;;5083137;27;89220;-43
2021/12/18 04:35:20;;;;;;;;;;;0.90;87.50;;;;;;5083887;27;90223;-43
2021/12/18 04:37:45;;;;;;;;;;;0.90;87.50;;;;;;5084238;27;87054;-43
2021/12/18 04:40:11;;;;;;;;;;;0.90;87.30;;;;;;5084204;27;88829;-43
2021/12/18 04:42:37;;;;;;;;;;;0.90;87.60;;;;;;5084456;27;88816;-45
2021/12/18 04:45:03;;;;;;;;;;;0.80;87.50;;;;;;5084279;27;87097;-44
2021/12/18 04:47:28;;;;;;;;;;;0.80;87.50;;;;;;5083969;27;89832;-45
2021/12/18 04:49:55;;;;;;;;;;;0.80;87.50;;;;;;5086203;27;91197;-45
2021/12/18 04:52:22;;;;;;;;;;;0.80;87.50;;;;;;5084035;27;89003;-42
2021/12/18 04:54:47;;;;;;;;;;;0.80;87.60;;;;;;5083682;27;89340;-43
2021/12/18 04:57:13;;;;;;;;;;;0.80;87.80;;;;;;5084246;27;87228;-45
2021/12/18 04:59:43;;;;;;;;;;;0.90;87.60;;;;;;5083750;27;88339;-43
2021/12/18 05:02:09;;;;;;;;;;;0.90;87.50;;;;;;5083703;27;90794;-43
2021/12/18 05:04:35;;;;;;;;;;;0.80;87.50;;;;;;5084023;27;86808;-43
2021/12/18 05:07:01;;;;;;;;;;;0.80;87.60;;;;;;5084164;27;89132;-43
2021/12/18 05:09:26;;;;;;;;;;;0.80;87.70;;;;;;5083753;27;89350;-43
2021/12/18 05:11:52;;;;;;;;;;;0.80;87.60;;;;;;5086699;27;86839;-43
2021/12/18 05:14:17;;;;;;;;;;;0.80;87.60;;;;;;5082694;27;90195;-43
2021/12/18 05:16:43;;;;;;;;;;;0.80;87.60;;;;;;5083982;27;87079;-44
2021/12/18 05:19:09;;;;;;;;;;;0.80;87.50;;;;;;5083657;27;89402;-43
2021/12/18 05:21:35;;;;;;;;;;;0.80;87.60;;;;;;5064942;27;91307;-45
2021/12/18 05:24:00;;;;;;;;;;;0.80;87.50;;;;;;5083684;27;87126;-43
2021/12/18 05:26:26;;;;;;;;;;;0.80;87.50;;;;;;5083610;27;88996;-43
2021/12/18 05:28:52;;;;;;;;;;;0.80;87.50;;;;;;5083518;27;89214;-43
2021/12/18 05:31:17;;;;;;;;;;;0.80;87.40;;;;;;5087072;27;86424;-43
2021/12/18 05:33:47;;;;;;;;;;;0.80;87.40;;;;;;5083093;27;89589;-44
2021/12/18 05:36:30;;;;;;;;;;;0.80;87.50;;;;;;5083400;27;87144;-44
2021/12/18 05:39:14;;;;;;;;;;;0.80;87.40;;;;;;5082829;27;88658;-42
2021/12/18 05:41:40;;;;;;;;;;;0.80;87.50;;;;;;5083180;27;89586;-43
2021/12/18 05:44:06;;;;;;;;;;;0.80;87.60;;;;;;5085162;27;86824;-42
2021/12/18 05:46:31;;;;;;;;;;;0.80;87.50;;;;;;5087033;27;88031;-43
2021/12/18 05:48:57;;;;;;;;;;;0.80;87.50;;;;;;5086708;27;89792;-42
2021/12/18 05:51:23;;;;;;;;;;;0.70;87.50;;;;;;5087226;27;87176;-44
2021/12/18 05:53:48;;;;;;;;;;;0.70;87.50;;;;;;5089552;27;87800;-45
2021/12/18 05:56:14;;;;;;;;;;;0.80;87.50;;;;;;5087394;27;86376;-42
2021/12/18 05:58:41;;;;;;;;;;;0.80;87.50;;;;;;5086695;27;87036;-42
2021/12/18 06:01:07;;;;;;;;;;;0.80;87.50;;;;;;5086406;27;89422;-45
2021/12/18 06:03:32;;;;;;;;;;;0.70;87.40;;;;;;5085865;27;88149;-46
2021/12/18 06:05:58;;;;;;;;;;;0.70;87.50;;;;;;5086718;27;89973;-44
2021/12/18 06:08:24;;;;;;;;;;;0.70;88.10;;;;;;5086326;27;89409;-45
2021/12/18 06:10:51;;;;;;;;;;;0.70;87.50;;;;;;5086638;27;87112;-42
2021/12/18 06:13:16;;;;;;;;;;;0.70;87.50;;;;;;5086577;27;88789;-45
2021/12/18 06:15:42;;;;;;;;;;;0.70;87.60;;;;;;5089152;27;90007;-44
2021/12/18 06:18:07;;;;;;;;;;;0.70;87.50;;;;;;5086689;27;88768;-42
2021/12/18 06:20:33;;;;;;;;;;;0.70;87.60;;;;;;5086598;27;88895;-42
2021/12/18 06:22:58;;;;;;;;;;;0.70;87.60;;;;;;5086569;27;86919;-43
2021/12/18 06:25:24;;;;;;;;;;;0.70;87.60;;;;;;5086292;27;87895;-44
2021/12/18 06:27:49;;;;;;;;;;;0.70;87.50;;;;;;5085386;27;90459;-44
2021/12/18 06:30:18;;;;;;;;;;;0.70;87.60;;;;;;5086287;27;87140;-44
2021/12/18 06:32:43;;;;;;;;;;;0.70;87.70;;;;;;5086392;27;88714;-45
2021/12/18 06:35:09;;;;;;;;;;;0.70;87.60;;;;;;5086008;27;89696;-44
2021/12/18 06:37:35;;;;;;;;;;;0.70;87.50;;;;;;5089303;27;87098;-43
2021/12/18 06:40:00;;;;;;;;;;;0.70;87.50;;;;;;5085867;27;89580;-42
2021/12/18 06:42:26;;;;;;;;;;;0.70;87.60;;;;;;5086110;27;87139;-43
2021/12/18 06:44:52;;;;;;;;;;;0.70;87.60;;;;;;5086636;27;89446;-42
2021/12/18 06:47:17;;;;;;;;;;;0.70;87.50;;;;;;5085405;27;88584;-43
2021/12/18 06:49:43;;;;;;;;;;;0.70;87.60;;;;;;5086292;27;87028;-42
2021/12/18 06:52:08;;;;;;;;;;;0.70;87.60;;;;;;5085422;27;89140;-43
2021/12/18 06:54:34;;;;;;;;;;;0.70;87.80;;;;;;5084957;27;89667;-42
2021/12/18 06:57:01;;;;;;;;;;;0.70;87.70;;;;;;5085239;27;87158;-44
2021/12/18 06:59:27;;;;;;;;;;;0.70;87.70;;;;;;5087636;27;88722;-43
2021/12/18 07:01:53;;;;;;;;;;;0.70;87.70;;;;;;5086126;27;87068;-44
2021/12/18 07:04:19;;;;;;;;;;;0.70;87.70;;;;;;5085682;27;88897;-43
2021/12/18 07:06:45;;;;;;;;;;;0.70;87.90;;;;;;5085636;27;89609;-44
2021/12/18 07:09:10;;;;;;;;;;;0.70;87.70;;;;;;5086248;27;86407;-42
2021/12/18 07:11:36;;;;;;;;;;;0.60;87.90;;;;;;5085736;27;88436;-45
2021/12/18 07:14:01;;;;;;;;;;;0.60;87.80;;;;;;5085385;27;89130;-43
2021/12/18 07:16:27;;;;;;;;;;;0.60;87.90;;;;;;5085260;27;87984;-43
2021/12/18 07:18:53;;;;;;;;;;;0.70;88.00;;;;;;5087784;27;89737;-43
2021/12/18 07:21:18;;;;;;;;;;;0.70;87.80;;;;;;5085418;27;86829;-42
2021/12/18 07:23:44;;;;;;;;;;;0.60;88.10;;;;;;5085409;27;88226;-43
2021/12/18 07:26:12;;;;;;;;;;;0.70;87.90;;;;;;5084954;27;89128;-44
2021/12/18 07:28:37;;;;;;;;;;;0.60;87.90;;;;;;5085236;27;87102;-44
2021/12/18 07:31:03;;;;;;;;;;;0.70;87.90;;;;;;5085343;27;89322;-43
2021/12/18 07:33:28;;;;;;;;;;;0.70;87.80;;;;;;5085524;27;88948;-43
2021/12/18 07:35:54;;;;;;;;;;;0.70;87.90;;;;;;5067159;27;87196;-43
2021/12/18 07:38:19;;;;;;;;;;;0.60;87.90;;;;;;5085150;27;89100;-44
2021/12/18 07:40:45;;;;;;;;;;;0.60;88.50;;;;;;5087350;27;90765;-44
2021/12/18 07:43:11;;;;;;;;;;;0.60;87.80;;;;;;5085190;27;89591;-43
2021/12/18 07:45:37;;;;;;;;;;;0.60;87.80;;;;;;5084788;27;89668;-44
2021/12/18 07:48:02;;;;;;;;;;;0.60;88.00;;;;;;5084932;27;87218;-44
2021/12/18 07:50:28;;;;;;;;;;;0.60;87.90;;;;;;5085159;27;89053;-44
2021/12/18 07:52:54;;;;;;;;;;;0.70;87.80;;;;;;5084762;27;88722;-44
2021/12/18 07:55:20;;;;;;;;;;;0.60;87.90;;;;;;5084862;27;87032;-44
2021/12/18 07:57:46;;;;;;;;;;;0.70;87.90;;;;;;5085337;27;88668;-43
2021/12/18 08:00:13;;;;;;;;;;;0.70;87.90;;;;;;5084165;27;89600;-44
2021/12/18 08:02:39;;;;;;;;;;;0.70;87.90;;;;;;5087537;27;87074;-43
2021/12/18 08:05:04;;;;;;;;;;;0.70;87.90;;;;;;5083882;27;90456;-44
2021/12/18 08:07:30;;;;;;;;;;;0.60;87.90;;;;;;5084511;27;87124;-44
2021/12/18 08:09:55;;;;;;;;;;;0.70;88.00;;;;;;5084654;27;89020;-43
2021/12/18 08:12:21;;;;;;;;;;;0.70;88.00;;;;;;5084373;27;89521;-45
2021/12/18 08:14:46;;;;;;;;;;;0.60;87.90;;;;;;5084757;27;87133;-43
2021/12/18 08:17:12;;;;;;;;;;;0.60;88.10;;;;;;5084353;27;88940;-42
2021/12/18 08:19:38;;;;;;;;;;;0.60;87.90;;;;;;5084191;27;89557;-44
2021/12/18 08:22:03;;;;;;;;;;;0.60;87.90;;;;;;5085117;27;86370;-44
2021/12/18 08:24:29;;;;;;;;;;;0.70;87.80;;;;;;5087136;27;88227;-43
2021/12/18 08:26:55;;;;;;;;;;;0.70;87.90;;;;;;5084613;27;87130;-44
2021/12/18 08:29:20;;;;;;;;;;;0.70;87.80;;;;;;5083857;27;89092;-44
2021/12/18 08:31:47;;;;;;;;;;;0.70;87.90;;;;;;5083969;27;89536;-43
2021/12/18 08:34:12;;;;;;;;;;;0.60;87.80;;;;;;5084232;27;87196;-43
2021/12/18 08:36:38;;;;;;;;;;;0.70;87.90;;;;;;5084482;27;88879;-44
2021/12/18 08:39:03;;;;;;;;;;;0.70;87.80;;;;;;5083907;27;88751;-44
2021/12/18 08:41:29;;;;;;;;;;;0.70;87.70;;;;;;5084101;27;87143;-44
2021/12/18 08:43:54;;;;;;;;;;;0.70;87.80;;;;;;5084178;27;87879;-43
2021/12/18 08:46:21;;;;;;;;;;;0.70;87.70;;;;;;5087244;27;88706;-42
2021/12/18 08:48:46;;;;;;;;;;;0.70;87.70;;;;;;5084288;27;88067;-44
2021/12/18 08:51:12;;;;;;;;;;;0.70;87.50;;;;;;5084029;27;90136;-44
2021/12/18 08:53:37;;;;;;;;;;;0.70;87.70;;;;;;5083414;27;88181;-43
2021/12/18 08:56:03;;;;;;;;;;;0.70;87.70;;;;;;5084248;27;89240;-43
2021/12/18 08:58:28;;;;;;;;;;;0.70;87.50;;;;;;5083270;27;91308;-43
2021/12/18 09:00:54;;;;;;;;;;;0.70;87.80;;;;;;5084334;27;87210;-44
2021/12/18 09:03:19;;;;;;;;;;;0.70;87.80;;;;;;5084099;27;87239;-44
2021/12/18 09:05:45;;;;;;;;;;;0.70;87.70;;;;;;5083650;27;89006;-43
2021/12/18 09:08:10;;;;;;;;;;;0.70;87.70;;;;;;5086857;27;87162;-44
2021/12/18 09:10:36;;;;;;;;;;;0.70;87.80;;;;;;5084011;27;87988;-45
2021/12/18 09:13:02;;;;;;;;;;;0.70;87.70;;;;;;5083999;27;87169;-44
2021/12/18 09:15:27;;;;;;;;;;;0.70;87.80;;;;;;5083866;27;88871;-44
2021/12/18 09:17:53;;;;;;;;;;;0.70;87.70;;;;;;5082723;27;90399;-44
2021/12/18 09:20:19;;;;;;;;;;;0.70;87.70;;;;;;5087257;27;87139;-44
2021/12/18 09:22:44;;;;;;;;;;;0.70;87.60;;;;;;5087788;27;89541;-43
2021/12/18 09:25:10;;;;;;;;;;;0.70;87.50;;;;;;5086968;27;89721;-43
2021/12/18 09:27:36;;;;;;;;;;;0.70;87.70;;;;;;5090319;27;87035;-43
2021/12/18 09:30:06;;;;;;;;;;;0.70;87.60;;;;;;5087124;27;87474;-44
2021/12/18 09:32:31;;;;;;;;;;;0.70;87.60;;;;;;5087149;27;87008;-44
2021/12/18 09:34:57;;;;;;;;;;;0.60;87.60;;;;;;5087883;27;89065;-43
2021/12/18 09:37:22;;;;;;;;;;;0.70;87.80;;;;;;5086897;27;90299;-44
2021/12/18 09:39:48;;;;;;;;;;;0.60;87.70;;;;;;5086989;27;88187;-44
2021/12/18 09:42:13;;;;;;;;;;;0.60;87.70;;;;;;5086542;27;88002;-44
2021/12/18 09:44:39;;;;;;;;;;;0.60;87.90;;;;;;5086563;27;89130;-45
2021/12/18 09:47:05;;;;;;;;;;;0.70;87.70;;;;;;5086800;27;87147;-46
2021/12/18 09:49:31;;;;;;;;;;;0.70;87.60;;;;;;5089701;27;88971;-46
2021/12/18 09:51:57;;;;;;;;;;;0.70;87.70;;;;;;5086880;27;87127;-44
2021/12/18 09:54:23;;;;;;;;;;;0.70;87.60;;;;;;5086961;27;88926;-44
2021/12/18 09:56:49;;;;;;;;;;;0.70;87.70;;;;;;5086583;27;89164;-43
2021/12/18 09:59:15;;;;;;;;;;;0.70;87.60;;;;;;5086863;27;86351;-43
2021/12/18 10:01:41;;;;;;;;;;;0.70;87.60;;;;;;5086775;27;87685;-43
2021/12/18 10:04:22;;;;;;;;;;;0.70;87.50;;;;;;5086389;27;88492;-44
2021/12/18 10:06:47;;;;;;;;;;;0.80;87.20;;;;;;5086277;27;87846;-45
2021/12/18 10:09:33;;;;;;;;;;;0.90;87.20;;;;;;5086567;27;89947;-43
2021/12/18 10:12:04;;;;;;;;;;;0.90;87.00;;;;;;5088400;27;89337;-46
2021/12/18 10:14:34;;;;;;;;;;;0.90;87.10;;;;;;5086492;27;89169;-44
2021/12/18 10:17:00;;;;;;;;;;;0.90;87.10;;;;;;5086406;27;89683;-43
2021/12/18 10:19:27;;;;;;;;;;;0.90;87.10;;;;;;5086436;27;87164;-44
2021/12/18 10:21:54;;;;;;;;;;;0.90;87.10;;;;;;5086621;27;88724;-44
2021/12/18 10:24:19;;;;;;;;;;;0.90;87.10;;;;;;5086402;27;88864;-44
2021/12/18 10:26:45;;;;;;;;;;;1.00;86.90;;;;;;5086205;27;87208;-44
2021/12/18 10:29:23;;;;;;;;;;;0.90;86.90;;;;;;5086296;27;88816;-44
2021/12/18 10:31:49;;;;;;;;;;;0.90;86.60;;;;;;5085390;27;90264;-43
2021/12/18 10:34:15;;;;;;;;;;;1.00;86.60;;;;;;5089420;27;87156;-44
2021/12/18 10:36:41;;;;;;;;;;;1.00;86.90;;;;;;5085880;27;89397;-43
2021/12/18 10:39:07;;;;;;;;;;;1.00;86.60;;;;;;5086245;27;87141;-44
2021/12/18 10:41:34;;;;;;;;;;;1.00;86.90;;;;;;5086160;27;88720;-44
2021/12/18 10:44:04;;;;;;;;;;;1.00;86.70;;;;;;5085955;27;89445;-43
2021/12/18 10:46:31;;;;;;;;;;;1.00;86.80;;;;;;5086123;27;86922;-43
2021/12/18 10:49:06;;;;;;;;;;;0.90;86.80;;;;;;5086626;27;89195;-43
2021/12/18 10:51:33;;;;;;;;;;;1.00;87.00;;;;;;5085495;27;89987;-45
2021/12/18 10:54:09;;;;;;;;;;;1.00;86.80;;;;;;5085690;27;87030;-44
2021/12/18 10:56:38;;;;;;;;;;;1.00;86.70;;;;;;5088226;27;88890;-43
2021/12/18 10:59:06;;;;;;;;;;;1.00;86.80;;;;;;5085421;27;87159;-44
2021/12/18 11:01:34;;;;;;;;;;;0.90;86.90;;;;;;5085798;27;89270;-44
2021/12/18 11:03:59;;;;;;;;;;;1.00;86.80;;;;;;5085362;27;89213;-43
2021/12/18 11:06:25;;;;;;;;;;;1.00;86.70;;;;;;5085871;27;87150;-44
2021/12/18 11:09:04;;;;;;;;;;;1.00;86.80;;;;;;5085994;27;87735;-44
2021/12/18 11:14:18;;;;;;;;;;;1.00;86.60;;;;;;5085181;27;86282;-46
2021/12/18 11:16:46;;;;;;;;;;;1.00;86.40;;;;;;5085549;27;88260;-45
2021/12/18 11:19:13;;;;;;;;;;;1.00;86.60;;;;;;5088021;27;89238;-44
2021/12/18 11:21:59;;;;;;;;;;;1.00;86.80;;;;;;5084846;27;89228;-45
2021/12/18 11:24:32;;;;;;;;;;;1.00;86.90;;;;;;5085549;27;88042;-47
2021/12/18 11:27:04;;;;;;;;;;;1.00;86.80;;;;;;5085442;27;86969;-45
2021/12/18 11:29:40;;;;;;;;;;;1.00;86.70;;;;;;5085046;27;88596;-46
2021/12/18 11:32:10;;;;;;;;;;;0.90;86.70;;;;;;5084901;27;89385;-46
2021/12/18 11:34:37;;;;;;;;;;;0.90;87.00;;;;;;5085352;27;87093;-48
2021/12/18 11:37:05;;;;;;;;;;;1.00;87.00;;;;;;5085471;27;88755;-44
2021/12/18 11:39:31;;;;;;;;;;;1.00;86.70;;;;;;5088350;27;87856;-44
2021/12/18 11:41:56;;;;;;;;;;;1.00;86.40;;;;;;5084674;27;87866;-48
2021/12/18 11:44:23;;;;;;;;;;;0.90;86.60;;;;;;5084564;27;88330;-44
2021/12/18 11:46:48;;;;;;;;;;;1.00;86.60;;;;;;5084481;27;87958;-44
2021/12/18 11:49:14;;;;;;;;;;;1.00;86.60;;;;;;5085095;27;90759;-45
2021/12/18 11:51:39;;;;;;;;;;;1.00;86.20;;;;;;5084752;27;89466;-45
2021/12/18 11:54:25;;;;;;;;;;;0.90;86.40;;;;;;5084969;27;87126;-45
2021/12/18 11:56:50;;;;;;;;;;;0.90;86.70;;;;;;5084377;27;88833;-44
2021/12/18 11:59:35;;;;;;;;;;;0.90;86.70;;;;;;5083969;27;89336;-49
2021/12/18 12:02:00;;;;;;;;;;;0.90;86.50;;;;;;5087745;27;87105;-44
2021/12/18 12:04:26;;;;;;;;;;;0.90;86.40;;;;;;5084946;27;89182;-45
2021/12/18 12:06:51;;;;;;;;;;;0.90;86.40;;;;;;5084899;27;87038;-46
2021/12/18 12:11:57;;;;;;;;;;;0.90;86.40;;;;;;5081585;27;88875;-44
2021/12/18 12:14:24;;;;;;;;;;;1.00;86.40;;;;;;5084631;27;87039;-44
2021/12/18 12:16:50;;;;;;;;;;;1.00;86.20;;;;;;5084624;27;89086;-44
2021/12/18 12:19:20;;;;;;;;;;;0.90;86.30;;;;;;5084166;27;89251;-44
2021/12/18 12:21:45;;;;;;;;;;;0.90;86.50;;;;;;5084580;27;87171;-44
2021/12/18 12:24:12;;;;;;;;;;;0.90;86.30;;;;;;5087052;27;88758;-44
2021/12/18 12:26:38;;;;;;;;;;;1.00;86.60;;;;;;5084286;27;87055;-43
2021/12/18 12:29:04;;;;;;;;;;;1.00;86.20;;;;;;5084904;27;88015;-44
2021/12/18 12:31:29;;;;;;;;;;;0.90;86.30;;;;;;5084137;27;89186;-44
2021/12/18 12:34:13;;;;;;;;;;;0.90;86.40;;;;;;5084460;27;87175;-44
2021/12/18 12:36:45;;;;;;;;;;;0.90;86.60;;;;;;5083784;27;89004;-44
2021/12/18 12:39:11;;;;;;;;;;;0.90;86.50;;;;;;5084107;27;89739;-43
2021/12/18 12:41:38;;;;;;;;;;;1.00;86.50;;;;;;5084375;27;86963;-43
2021/12/18 12:44:16;;;;;;;;;;;0.90;86.60;;;;;;5084464;27;88930;-43
2021/12/18 12:46:42;;;;;;;;;;;1.00;86.40;;;;;;5086914;27;88652;-44
2021/12/18 12:49:19;;;;;;;;;;;0.90;86.70;;;;;;5084063;27;88680;-44
2021/12/18 12:51:57;;;;;;;;;;;1.00;86.50;;;;;;5083777;27;89357;-44
2021/12/18 12:54:38;;;;;;;;;;;0.90;86.50;;;;;;5087192;27;86363;-44
2021/12/18 12:57:22;;;;;;;;;;;1.00;86.80;;;;;;5087828;27;88520;-43
2021/12/18 12:59:50;;;;;;;;;;;1.00;86.50;;;;;;5087082;27;89747;-44
2021/12/18 13:02:15;;;;;;;;;;;1.00;86.70;;;;;;5087007;27;88163;-43
2021/12/18 13:04:41;;;;;;;;;;;1.00;86.40;;;;;;5087585;27;88961;-43
2021/12/18 13:07:07;;;;;;;;;;;0.90;86.60;;;;;;5087480;27;87940;-43
2021/12/18 13:09:33;;;;;;;;;;;0.90;86.70;;;;;;5090519;27;87168;-43
2021/12/18 13:12:05;;;;;;;;;;;0.90;86.60;;;;;;5087060;27;89693;-44
2021/12/18 13:14:37;;;;;;;;;;;0.90;86.90;;;;;;5087636;27;87112;-44
2021/12/18 13:17:15;;;;;;;;;;;0.90;86.80;;;;;;5087809;27;88591;-43
2021/12/18 13:19:51;;;;;;;;;;;1.00;86.90;;;;;;5087944;27;88844;-44
2021/12/18 13:22:16;;;;;;;;;;;1.00;86.70;;;;;;5068979;27;87075;-43
2021/12/18 13:24:42;;;;;;;;;;;0.90;86.70;;;;;;5087534;27;88008;-44
2021/12/18 13:27:11;;;;;;;;;;;1.00;86.60;;;;;;5086388;27;90690;-44
2021/12/18 13:29:37;;;;;;;;;;;1.00;86.40;;;;;;5087190;27;87159;-43
2021/12/18 13:32:04;;;;;;;;;;;1.00;86.60;;;;;;5090084;27;88918;-43
2021/12/18 13:34:32;;;;;;;;;;;1.00;86.30;;;;;;5087173;27;87125;-44
2021/12/18 13:36:57;;;;;;;;;;;1.00;86.40;;;;;;5087201;27;88731;-44
2021/12/18 13:39:25;;;;;;;;;;;1.00;86.20;;;;;;5086765;27;89271;-44
2021/12/18 13:41:58;;;;;;;;;;;1.00;86.40;;;;;;5087216;27;86949;-44
2021/12/18 13:44:23;;;;;;;;;;;1.00;86.50;;;;;;5087441;27;89100;-44
2021/12/18 13:46:49;;;;;;;;;;;1.00;86.20;;;;;;5086818;27;89132;-43
2021/12/18 13:49:15;;;;;;;;;;;1.00;86.20;;;;;;5086993;27;87022;-43
2021/12/18 13:51:40;;;;;;;;;;;1.00;86.30;;;;;;5088873;27;89135;-43
2021/12/18 13:54:06;;;;;;;;;;;1.00;86.10;;;;;;5086935;27;87094;-46
2021/12/18 13:56:35;;;;;;;;;;;1.00;86.20;;;;;;5068679;27;89433;-44
2021/12/18 13:59:14;;;;;;;;;;;1.10;86.20;;;;;;5086083;27;89411;-44
2021/12/18 14:01:39;;;;;;;;;;;1.10;86.00;;;;;;5086770;27;87073;-43
2021/12/18 14:04:12;;;;;;;;;;;1.00;86.00;;;;;;5086413;27;88977;-44
2021/12/18 14:06:39;;;;;;;;;;;1.00;85.90;;;;;;5086338;27;89571;-45
2021/12/18 14:09:04;;;;;;;;;;;1.00;86.30;;;;;;5087170;27;86407;-45
2021/12/18 14:11:36;;;;;;;;;;;1.00;86.30;;;;;;5086712;27;88455;-45
2021/12/18 14:14:09;;;;;;;;;;;1.00;86.30;;;;;;5089181;27;89811;-45
2021/12/18 14:16:35;;;;;;;;;;;1.00;86.30;;;;;;5085870;27;89079;-44
2021/12/18 14:19:05;;;;;;;;;;;1.00;86.50;;;;;;5086052;27;89116;-45
2021/12/18 14:21:37;;;;;;;;;;;1.00;86.50;;;;;;5086423;27;87122;-45
2021/12/18 14:24:02;;;;;;;;;;;1.00;86.40;;;;;;5086410;27;89040;-45
2021/12/18 14:26:30;;;;;;;;;;;1.00;86.60;;;;;;5086021;27;89383;-45
2021/12/18 14:28:57;;;;;;;;;;;1.00;86.70;;;;;;5086246;27;87133;-44
2021/12/18 14:31:36;;;;;;;;;;;1.00;86.80;;;;;;5086422;27;87432;-46
2021/12/18 14:34:04;;;;;;;;;;;0.90;86.70;;;;;;5086374;27;88802;-45
2021/12/18 14:36:48;;;;;;;;;;;0.90;86.70;;;;;;5089200;27;87045;-44
2021/12/18 14:39:19;;;;;;;;;;;1.00;86.40;;;;;;5085757;27;88449;-44
2021/12/18 14:42:14;;;;;;;;;;;1.00;86.10;;;;;;5085299;27;88065;-43
2021/12/18 14:44:47;;;;;;;;;;;1.00;86.10;;;;;;4994076;27;89980;-45
2021/12/18 14:47:14;;;;;;;;;;;0.90;86.30;;;;;;5085575;27;89553;-45
2021/12/18 14:49:56;;;;;;;;;;;1.00;86.40;;;;;;5086099;27;86879;-45
2021/12/18 14:52:22;;;;;;;;;;;0.90;86.10;;;;;;5085553;27;88823;-45
2021/12/18 14:54:48;;;;;;;;;;;0.80;86.50;;;;;;5085622;27;89747;-45
2021/12/18 14:57:23;;;;;;;;;;;0.80;86.60;;;;;;5086268;27;87150;-45
2021/12/18 15:00:09;;;;;;;;;;;0.80;86.70;;;;;;5088492;27;89179;-44
2021/12/18 15:02:51;;;;;;;;;;;0.70;86.70;;;;;;5085762;27;87108;-44
2021/12/18 15:05:16;;;;;;;;;;;0.70;86.70;;;;;;5085846;27;88814;-45
2021/12/18 15:07:54;;;;;;;;;;;0.70;86.70;;;;;;5084856;27;90438;-44
2021/12/18 15:10:19;;;;;;;;;;;0.70;86.80;;;;;;5085860;27;86908;-44
2021/12/18 15:12:45;;;;;;;;;;;0.70;86.90;;;;;;5085738;27;89002;-44
2021/12/18 15:15:14;;;;;;;;;;;0.70;86.80;;;;;;5085271;27;89538;-44
2021/12/18 15:17:39;;;;;;;;;;;0.70;87.40;;;;;;5084404;27;87146;-46
2021/12/18 15:20:05;;;;;;;;;;;0.70;86.90;;;;;;5085540;27;89184;-44
2021/12/18 15:22:31;;;;;;;;;;;0.70;86.90;;;;;;5088173;27;90454;-45
2021/12/18 15:24:56;;;;;;;;;;;0.70;86.90;;;;;;5085944;27;88264;-45
2021/12/18 15:27:22;;;;;;;;;;;0.70;86.90;;;;;;5085143;27;90004;-44
2021/12/18 15:29:47;;;;;;;;;;;0.70;86.80;;;;;;5085425;27;87210;-44